createdAt,value
2018-06-10T00:02:01.369Z,11.57
2018-06-10T00:04:29.660Z,12.37
2018-06-10T00:06:57.952Z,12.17
2018-06-10T00:09:26.243Z,10.13
2018-06-10T00:11:54.537Z,9.77
2018-06-10T00:14:22.831Z,9.10
2018-06-10T00:16:51.152Z,10.23
2018-06-10T00:19:19.588Z,9.27
2018-06-10T00:21:47.855Z,9.70
2018-06-10T00:24:16.165Z,10.17
2018-06-10T00:26:44.477Z,10.10
2018-06-10T00:29:18.221Z,10.03
2018-06-10T00:31:46.464Z,10.30
2018-06-10T00:34:14.449Z,9.37
2018-06-10T00:36:42.722Z,9.83
2018-06-10T00:39:11.013Z,9.87
2018-06-10T00:41:39.275Z,10.90
2018-06-10T00:44:07.603Z,11.83
2018-06-10T00:46:35.858Z,9.70
2018-06-10T00:49:04.105Z,10.00
2018-06-10T00:51:32.371Z,11.53
2018-06-10T00:54:00.598Z,10.63
2018-06-10T00:56:40.209Z,11.87
2018-06-10T00:59:08.507Z,11.27
2018-06-10T01:01:36.773Z,12.17
2018-06-10T01:04:05.168Z,11.37
2018-06-10T01:06:33.463Z,12.30
2018-06-10T01:09:01.769Z,11.97
2018-06-10T01:11:30.046Z,12.77
2018-06-10T01:13:58.055Z,12.57
2018-06-10T01:16:26.331Z,13.27
2018-06-10T01:18:54.615Z,13.03
2018-06-10T01:21:22.905Z,12.90
2018-06-10T01:23:51.306Z,11.30
2018-06-10T01:26:24.906Z,9.67
2018-06-10T01:28:53.142Z,9.00
2018-06-10T01:31:21.412Z,9.10
2018-06-10T01:33:49.682Z,9.00
2018-06-10T01:36:17.915Z,8.20
2018-06-10T01:38:46.220Z,9.10
2018-06-10T01:41:14.503Z,8.03
2018-06-10T01:43:42.769Z,8.50
2018-06-10T01:46:11.058Z,8.40
2018-06-10T01:48:39.435Z,8.90
2018-06-10T01:51:07.681Z,8.70
2018-06-10T01:53:35.689Z,8.47
2018-06-10T01:56:04.040Z,8.67
2018-06-10T01:58:32.351Z,8.43
2018-06-10T02:01:00.612Z,8.30
2018-06-10T02:03:28.983Z,9.40
2018-06-10T02:05:57.261Z,8.03
2018-06-10T02:08:25.521Z,8.17
2018-06-10T02:10:53.801Z,9.00
2018-06-10T02:13:22.051Z,8.20
2018-06-10T02:15:50.014Z,8.73
2018-06-10T02:18:18.333Z,8.47
2018-06-10T02:20:46.662Z,9.13
2018-06-10T02:23:14.867Z,7.90
2018-06-10T02:25:43.187Z,8.03
2018-06-10T02:28:11.557Z,8.70
2018-06-10T02:30:39.795Z,8.43
2018-06-10T02:33:08.811Z,8.20
2018-06-10T02:35:37.104Z,8.30
2018-06-10T02:38:05.571Z,8.83
2018-06-10T02:40:33.901Z,8.33
2018-06-10T02:43:02.180Z,8.53
2018-06-10T02:45:30.474Z,8.87
2018-06-10T02:50:49.405Z,8.70
2018-06-10T02:53:17.703Z,8.30
2018-06-10T02:55:46.009Z,9.57
2018-06-10T02:58:14.274Z,9.60
2018-06-10T03:00:42.597Z,10.17
2018-06-10T03:03:10.876Z,10.33
2018-06-10T03:05:39.152Z,10.10
2018-06-10T03:08:07.407Z,10.43
2018-06-10T03:10:35.756Z,9.77
2018-06-10T03:13:04.034Z,10.77
2018-06-10T03:15:32.385Z,10.10
2018-06-10T03:18:00.643Z,10.40
2018-06-10T03:20:28.903Z,9.80
2018-06-10T03:22:57.208Z,10.10
2018-06-10T03:25:25.519Z,9.50
2018-06-10T03:27:53.819Z,10.27
2018-06-10T03:30:22.077Z,10.30
2018-06-10T03:32:50.342Z,11.70
2018-06-10T03:35:18.394Z,11.90
2018-06-10T03:37:46.642Z,13.50
2018-06-10T03:40:15.000Z,13.10
2018-06-10T03:42:43.428Z,12.80
2018-06-10T03:45:11.739Z,11.90
2018-06-10T03:47:39.999Z,15.03
2018-06-10T03:50:08.411Z,15.50
2018-06-10T03:52:36.947Z,15.40
2018-06-10T03:55:05.232Z,16.10
2018-06-10T03:57:33.511Z,17.77
2018-06-10T04:00:01.850Z,17.83
2018-06-10T04:02:30.101Z,17.37
2018-06-10T04:04:58.338Z,17.53
2018-06-10T04:07:26.348Z,17.53
2018-06-10T04:09:54.911Z,17.57
2018-06-10T04:12:24.426Z,17.27
2018-06-10T04:14:52.985Z,18.30
2018-06-10T04:17:21.902Z,19.17
2018-06-10T04:19:50.167Z,19.23
2018-06-10T04:22:18.432Z,18.73
2018-06-10T04:24:46.711Z,17.67
2018-06-10T04:27:15.034Z,18.53
2018-06-10T04:29:43.404Z,17.53
2018-06-10T04:32:11.730Z,17.33
2018-06-10T04:34:39.986Z,17.20
2018-06-10T04:37:08.240Z,16.87
2018-06-10T04:39:36.594Z,16.00
2018-06-10T04:42:04.868Z,16.10
2018-06-10T04:44:33.112Z,15.50
2018-06-10T04:47:01.130Z,16.57
2018-06-10T04:49:29.634Z,16.73
2018-06-10T04:51:57.956Z,15.93
2018-06-10T04:54:26.353Z,15.40
2018-06-10T04:56:54.651Z,15.47
2018-06-10T04:59:22.965Z,15.80
2018-06-10T05:01:51.465Z,15.17
2018-06-10T05:04:19.745Z,15.93
2018-06-10T05:06:48.739Z,15.53
2018-06-10T05:09:17.020Z,13.80
2018-06-10T05:11:45.356Z,14.40
2018-06-10T05:14:13.669Z,13.63
2018-06-10T05:16:41.916Z,14.70
2018-06-10T05:19:10.247Z,12.73
2018-06-10T05:21:38.512Z,13.87
2018-06-10T05:24:06.814Z,13.30
2018-06-10T05:26:35.128Z,13.67
2018-06-10T05:29:03.426Z,13.20
2018-06-10T05:31:31.780Z,13.10
2018-06-10T05:34:00.049Z,13.93
2018-06-10T05:36:28.477Z,12.57
2018-06-10T05:38:56.757Z,12.53
2018-06-10T05:41:25.030Z,12.93
2018-06-10T05:43:53.280Z,13.27
2018-06-10T05:46:21.260Z,13.10
2018-06-10T05:48:49.601Z,12.90
2018-06-10T05:51:17.973Z,12.00
2018-06-10T05:53:46.288Z,11.23
2018-06-10T05:56:14.557Z,11.00
2018-06-10T05:58:42.551Z,10.93
2018-06-10T06:01:10.868Z,10.97
2018-06-10T06:03:39.131Z,13.23
2018-06-10T06:06:07.557Z,11.87
2018-06-10T06:08:35.860Z,11.07
2018-06-10T06:11:04.155Z,11.90
2018-06-10T06:13:32.421Z,10.70
2018-06-10T06:16:00.754Z,11.37
2018-06-10T06:18:29.008Z,11.12
2018-06-10T06:20:57.240Z,11.65
2018-06-10T06:23:25.588Z,11.65
2018-06-10T06:25:53.735Z,11.90
2018-06-10T06:28:22.020Z,10.72
2018-06-10T06:30:50.799Z,9.70
2018-06-10T06:33:19.078Z,10.95
2018-06-10T06:35:47.630Z,10.82
2018-06-10T06:38:15.962Z,9.15
2018-06-10T06:40:44.225Z,8.80
2018-06-10T06:43:12.608Z,12.13
2018-06-10T06:45:40.891Z,9.73
2018-06-10T06:48:08.874Z,10.18
2018-06-10T06:50:37.186Z,9.60
2018-06-10T06:53:05.489Z,9.98
2018-06-10T06:55:33.732Z,9.23
2018-06-10T06:58:02.073Z,9.00
2018-06-10T07:00:30.106Z,8.88
2018-06-10T07:02:58.334Z,8.23
2018-06-10T07:05:26.684Z,8.23
2018-06-10T07:07:54.999Z,8.25
2018-06-10T07:10:23.233Z,9.93
2018-06-10T07:12:51.595Z,9.43
2018-06-10T07:15:19.878Z,9.88
2018-06-10T07:17:48.107Z,10.08
2018-06-10T07:20:16.414Z,9.73
2018-06-10T07:22:44.732Z,9.35
2018-06-10T07:25:12.760Z,9.80
2018-06-10T07:27:41.106Z,9.08
2018-06-10T07:30:09.406Z,9.53
2018-06-10T07:32:37.722Z,9.83
2018-06-10T07:35:06.138Z,9.43
2018-06-10T07:37:34.414Z,11.60
2018-06-10T07:40:02.732Z,10.98
2018-06-10T07:42:31.075Z,11.80
2018-06-10T07:44:59.395Z,10.10
2018-06-10T07:47:27.750Z,9.90
2018-06-10T07:49:56.046Z,8.43
2018-06-10T07:52:24.360Z,8.63
2018-06-10T07:54:52.752Z,9.15
2018-06-10T07:57:21.007Z,9.88
2018-06-10T07:59:49.081Z,8.95
2018-06-10T08:02:17.484Z,8.05
2018-06-10T08:04:45.713Z,8.63
2018-06-10T08:07:14.004Z,9.80
2018-06-10T08:09:42.289Z,9.35
2018-06-10T08:12:10.603Z,10.40
2018-06-10T08:14:38.957Z,8.55
2018-06-10T08:17:07.260Z,9.33
2018-06-10T08:19:35.501Z,9.95
2018-06-10T08:22:03.846Z,10.23
2018-06-10T08:24:32.153Z,12.18
2018-06-10T08:27:00.429Z,19.45
2018-06-10T08:29:28.858Z,14.85
2018-06-10T08:31:57.140Z,16.42
2018-06-10T08:34:25.473Z,18.40
2018-06-10T08:36:53.774Z,21.55
2018-06-10T08:39:22.042Z,33.25
2018-06-10T08:41:50.358Z,37.35
2018-06-10T08:44:18.626Z,46.65
2018-06-10T08:46:46.923Z,56.28
2018-06-10T08:49:15.310Z,57.03
2018-06-10T08:51:43.571Z,55.73
2018-06-10T08:54:12.047Z,60.00
2018-06-10T08:56:40.340Z,54.55
2018-06-10T08:59:08.372Z,54.58
2018-06-10T09:01:36.711Z,50.70
2018-06-10T09:04:04.986Z,50.65
2018-06-10T09:06:33.375Z,50.05
2018-06-10T09:09:01.686Z,51.68
2018-06-10T09:11:30.036Z,46.95
2018-06-10T09:13:58.383Z,48.63
2018-06-10T09:16:26.701Z,47.03
2018-06-10T09:18:55.027Z,50.15
2018-06-10T09:21:23.300Z,51.18
2018-06-10T09:23:51.526Z,48.98
2018-06-10T09:26:19.858Z,51.88
2018-06-10T09:28:47.960Z,58.58
2018-06-10T09:31:16.363Z,57.20
2018-06-10T09:33:44.727Z,57.55
2018-06-10T09:36:13.047Z,57.03
2018-06-10T09:38:41.411Z,57.40
2018-06-10T09:41:09.780Z,55.48
2018-06-10T09:43:38.137Z,56.92
2018-06-10T09:46:06.521Z,53.63
2018-06-10T09:48:34.860Z,54.67
2018-06-10T09:51:03.177Z,50.38
2018-06-10T09:53:31.454Z,46.42
2018-06-10T09:55:59.770Z,44.53
2018-06-10T09:58:28.048Z,45.17
2018-06-10T10:00:56.428Z,44.93
2018-06-10T10:03:24.689Z,45.33
2018-06-10T10:05:53.614Z,44.42
2018-06-10T10:08:21.900Z,41.33
2018-06-10T10:10:50.472Z,39.03
2018-06-10T10:13:18.789Z,37.67
2018-06-10T10:15:47.185Z,37.90
2018-06-10T10:18:15.562Z,38.67
2018-06-10T10:20:43.876Z,35.95
2018-06-10T10:23:11.991Z,35.38
2018-06-10T10:25:40.764Z,36.00
2018-06-10T10:28:09.058Z,35.05
2018-06-10T10:30:37.403Z,33.88
2018-06-10T10:33:05.667Z,33.08
2018-06-10T10:35:33.667Z,33.98
2018-06-10T10:38:02.059Z,31.87
2018-06-10T10:40:30.383Z,34.20
2018-06-10T10:42:58.660Z,34.60
2018-06-10T10:45:27.044Z,33.05
2018-06-10T10:47:55.422Z,33.55
2018-06-10T10:50:23.708Z,32.75
2018-06-10T10:52:52.011Z,32.53
2018-06-10T10:55:20.325Z,37.03
2018-06-10T10:57:48.617Z,31.73
2018-06-10T11:00:16.925Z,32.67
2018-06-10T11:02:45.278Z,33.83
2018-06-10T11:05:13.546Z,32.98
2018-06-10T11:07:41.867Z,32.63
2018-06-10T11:10:10.097Z,35.38
2018-06-10T11:12:38.309Z,34.53
2018-06-10T11:15:06.580Z,35.10
2018-06-10T11:17:34.857Z,37.42
2018-06-10T11:20:03.170Z,34.35
2018-06-10T11:22:31.446Z,33.40
2018-06-10T11:24:59.838Z,33.33
2018-06-10T11:27:28.169Z,33.42
2018-06-10T11:29:56.776Z,35.25
2018-06-10T11:32:25.396Z,33.15
2018-06-10T11:34:53.952Z,34.73
2018-06-10T11:37:22.530Z,35.83
2018-06-10T11:39:50.972Z,35.52
2018-06-10T11:42:19.376Z,35.60
2018-06-10T11:44:47.581Z,32.90
2018-06-10T11:47:16.028Z,34.83
2018-06-10T11:49:44.393Z,35.35
2018-06-10T11:52:12.839Z,32.20
2018-06-10T11:54:41.064Z,31.85
2018-06-10T11:57:09.367Z,34.63
2018-06-10T11:59:37.694Z,33.25
2018-06-10T12:02:06.073Z,34.00
2018-06-10T12:04:34.320Z,32.45
2018-06-10T12:07:02.668Z,36.10
2018-06-10T12:09:31.178Z,37.98
2018-06-10T12:11:59.591Z,35.98
2018-06-10T12:14:28.014Z,37.25
2018-06-10T12:16:56.369Z,37.10
2018-06-10T12:19:24.714Z,40.45
2018-06-10T12:21:53.100Z,40.80
2018-06-10T12:24:21.513Z,37.03
2018-06-10T12:26:49.834Z,37.58
2018-06-10T12:29:18.366Z,38.65
2018-06-10T12:31:46.712Z,37.60
2018-06-10T12:34:15.031Z,34.73
2018-06-10T12:36:43.313Z,34.13
2018-06-10T12:39:11.619Z,35.95
2018-06-10T12:41:39.881Z,36.53
2018-06-10T12:44:08.143Z,36.08
2018-06-10T12:46:36.463Z,36.33
2018-06-10T12:49:04.860Z,36.58
2018-06-10T12:51:33.168Z,39.15
2018-06-10T12:54:01.458Z,38.80
2018-06-10T12:56:29.726Z,39.55
2018-06-10T12:58:58.046Z,40.20
2018-06-10T13:01:26.027Z,43.85
2018-06-10T13:03:54.426Z,43.00
2018-06-10T13:06:22.688Z,44.48
2018-06-10T13:08:51.024Z,41.70
2018-06-10T13:11:19.317Z,40.92
2018-06-10T13:13:47.679Z,44.08
2018-06-10T13:16:16.128Z,44.38
2018-06-10T13:18:44.589Z,46.60
2018-06-10T13:21:12.969Z,45.88
2018-06-10T13:23:41.217Z,46.10
2018-06-10T13:26:09.574Z,43.52
2018-06-10T13:28:38.096Z,47.17
2018-06-10T13:31:06.471Z,48.00
2018-06-10T13:33:34.730Z,46.35
2018-06-10T13:36:02.741Z,48.60
2018-06-10T13:38:30.962Z,51.50
2018-06-10T13:40:59.531Z,49.45
2018-06-10T13:43:28.140Z,48.92
2018-06-10T13:45:56.988Z,50.15
2018-06-10T13:48:25.595Z,50.95
2018-06-10T13:50:54.152Z,54.45
2018-06-10T13:53:22.812Z,48.15
2018-06-10T13:55:51.484Z,47.98
2018-06-10T13:58:20.131Z,53.63
2018-06-10T14:00:48.482Z,52.73
2018-06-10T14:03:16.833Z,54.45
2018-06-10T14:05:45.174Z,52.62
2018-06-10T14:08:13.480Z,52.08
2018-06-10T14:10:41.766Z,52.50
2018-06-10T14:13:10.131Z,51.13
2018-06-10T14:15:38.436Z,52.40
2018-06-10T14:18:06.772Z,53.50
2018-06-10T14:20:34.853Z,53.28
2018-06-10T14:23:03.260Z,53.58
2018-06-10T14:25:31.520Z,51.95
2018-06-10T14:27:59.878Z,50.88
2018-06-10T14:33:02.832Z,52.43
2018-06-10T14:35:31.158Z,52.43
2018-06-10T14:37:59.539Z,50.20
2018-06-10T14:40:27.762Z,46.05
2018-06-10T14:42:56.082Z,49.00
2018-06-10T14:45:24.151Z,49.42
2018-06-10T14:47:52.137Z,48.45
2018-06-10T14:50:20.456Z,47.60
2018-06-10T14:52:48.755Z,46.58
2018-06-10T14:55:17.065Z,50.58
2018-06-10T14:57:45.382Z,45.70
2018-06-10T15:00:13.722Z,42.88
2018-06-10T15:02:42.020Z,42.08
2018-06-10T15:05:10.352Z,40.58
2018-06-10T15:07:38.351Z,40.30
2018-06-10T15:10:06.643Z,40.83
2018-06-10T15:12:35.006Z,39.90
2018-06-10T15:15:03.408Z,40.30
2018-06-10T15:17:31.683Z,36.70
2018-06-10T15:19:59.966Z,33.05
2018-06-10T15:22:28.262Z,31.90
2018-06-10T15:24:56.508Z,32.88
2018-06-10T15:27:24.823Z,28.90
2018-06-10T15:29:53.046Z,30.68
2018-06-10T15:32:21.316Z,27.67
2018-06-10T15:34:49.571Z,29.50
2018-06-10T16:10:45.156Z,24.95
2018-06-10T16:13:13.217Z,25.45
2018-06-10T16:15:41.471Z,25.05
2018-06-10T16:18:09.782Z,24.15
2018-06-10T16:20:38.080Z,24.57
2018-06-10T16:23:06.359Z,22.15
2018-06-10T16:25:34.612Z,22.37
2018-06-10T16:28:02.920Z,22.10
2018-06-10T16:30:31.216Z,20.65
2018-06-10T16:32:59.478Z,23.05
2018-06-10T16:35:27.755Z,22.02
2018-06-10T16:37:56.024Z,21.12
2018-06-10T16:40:24.306Z,22.17
2018-06-10T16:42:52.680Z,20.55
2018-06-10T16:45:20.924Z,20.30
2018-06-10T16:47:49.231Z,21.07
2018-06-10T16:50:17.496Z,23.32
2018-06-10T16:52:45.800Z,22.95
2018-06-10T16:55:14.096Z,21.75
2018-06-10T16:57:42.392Z,21.93
2018-06-10T17:00:10.609Z,21.97
2018-06-10T17:02:38.928Z,23.35
2018-06-10T17:05:07.260Z,22.40
2018-06-10T17:07:35.487Z,23.65
2018-06-10T17:10:03.824Z,24.70
2018-06-10T17:12:32.054Z,20.97
2018-06-10T17:15:00.332Z,21.42
2018-06-10T17:17:28.379Z,20.95
2018-06-10T17:19:56.650Z,20.27
2018-06-10T17:22:25.313Z,20.37
2018-06-10T17:24:53.880Z,22.02
2018-06-10T17:27:22.216Z,21.12
2018-06-10T17:29:50.472Z,20.52
2018-06-10T17:32:18.756Z,19.52
2018-06-10T17:34:47.026Z,19.90
2018-06-10T17:37:15.327Z,18.92
2018-06-10T17:39:43.357Z,19.70
2018-06-10T17:42:11.798Z,19.02
2018-06-10T17:44:40.735Z,18.10
2018-06-10T17:47:09.075Z,17.75
2018-06-10T17:49:37.335Z,17.90
2018-06-10T17:52:06.134Z,18.62
2018-06-10T17:54:34.539Z,18.00
2018-06-10T17:57:02.975Z,20.08
2018-06-10T17:59:31.077Z,18.52
2018-06-10T18:01:59.663Z,20.43
2018-06-10T18:04:28.033Z,18.67
2018-06-10T18:06:56.432Z,20.35
2018-06-10T18:09:24.737Z,22.37
2018-06-10T18:11:53.089Z,20.57
2018-06-10T18:14:21.418Z,18.65
2018-06-10T18:16:49.413Z,18.85
2018-06-10T18:19:17.763Z,18.52
2018-06-10T18:21:46.010Z,19.30
2018-06-10T18:26:48.940Z,19.90
2018-06-10T18:29:17.348Z,20.12
2018-06-10T18:31:45.722Z,20.15
2018-06-10T18:34:13.760Z,19.02
2018-06-10T18:36:41.809Z,17.80
2018-06-10T18:39:10.095Z,17.70
2018-06-10T18:41:38.366Z,17.55
2018-06-10T18:44:06.676Z,18.37
2018-06-10T18:46:35.003Z,20.00
2018-06-10T18:49:03.255Z,20.40
2018-06-10T18:51:31.595Z,17.95
2018-06-10T18:53:59.701Z,17.87
2018-06-10T18:56:28.016Z,16.50
2018-06-10T18:58:56.424Z,17.80
2018-06-10T19:01:24.546Z,18.48
2018-06-10T19:03:52.979Z,19.12
2018-06-10T19:06:21.095Z,18.12
2018-06-10T19:08:50.268Z,18.52
2018-06-10T19:11:18.674Z,22.30
2018-06-10T19:13:47.094Z,20.02
2018-06-10T19:16:15.386Z,19.32
2018-06-10T19:18:43.709Z,18.25
2018-06-10T19:21:12.115Z,19.45
2018-06-10T19:23:40.517Z,18.00
2018-06-10T19:26:08.498Z,17.87
2018-06-10T19:28:36.920Z,18.17
2018-06-10T19:31:05.224Z,17.87
2018-06-10T19:33:33.504Z,19.85
2018-06-10T19:36:01.741Z,20.75
2018-06-10T19:38:30.075Z,19.17
2018-06-10T19:40:58.355Z,18.20
2018-06-10T19:43:26.318Z,18.60
2018-06-10T19:45:54.377Z,19.07
2018-06-10T19:48:22.751Z,19.35
2018-06-10T19:50:51.045Z,18.37
2018-06-10T19:53:19.050Z,17.32
2018-06-10T19:55:47.587Z,19.90
2018-06-10T19:59:18.797Z,19.37
2018-06-10T20:01:47.119Z,19.52
2018-06-10T20:04:15.100Z,17.82
2018-06-10T20:06:43.107Z,19.25
2018-06-10T20:09:11.358Z,19.55
2018-06-10T20:11:39.635Z,20.35
2018-06-10T20:14:07.931Z,18.85
2018-06-10T20:16:36.215Z,19.17
2018-06-10T20:19:04.546Z,18.90
2018-06-10T20:21:32.779Z,19.98
2018-06-10T20:24:01.028Z,28.38
2018-06-10T20:26:29.301Z,24.10
2018-06-10T20:28:57.548Z,19.55
2018-06-10T20:31:25.868Z,20.88
2018-06-10T20:33:54.718Z,20.55
2018-06-10T20:36:22.745Z,19.52
2018-06-10T20:38:51.296Z,19.65
2018-06-10T20:41:20.149Z,19.35
2018-06-10T20:43:48.569Z,19.17
2018-06-10T20:46:16.948Z,18.42
2018-06-10T20:48:45.270Z,18.57
2018-06-10T20:51:13.535Z,17.32
2018-06-10T20:53:41.797Z,18.70
2018-06-10T20:56:10.065Z,19.25
2018-06-10T20:58:38.322Z,17.82
2018-06-10T21:01:06.705Z,18.48
2018-06-10T21:03:34.985Z,18.30
2018-06-10T21:06:03.369Z,19.30
2018-06-10T21:08:31.698Z,18.95
2018-06-10T21:10:59.963Z,18.62
2018-06-10T21:13:28.265Z,18.98
2018-06-10T21:15:56.552Z,20.52
2018-06-10T21:18:24.852Z,19.17
2018-06-10T21:20:53.166Z,18.75
2018-06-10T21:23:21.435Z,18.10
2018-06-10T21:25:49.697Z,18.60
2018-06-10T21:28:17.997Z,18.67
2018-06-10T21:30:46.261Z,16.82
2018-06-10T21:33:15.133Z,18.95
2018-06-10T21:35:43.358Z,18.40
2018-06-10T21:38:11.647Z,18.67
2018-06-10T21:40:39.976Z,17.82
2018-06-10T21:43:08.230Z,18.92
2018-06-10T21:45:36.487Z,17.27
2018-06-10T21:48:04.967Z,17.37
2018-06-10T21:50:33.228Z,18.27
2018-06-10T21:53:01.501Z,17.45
2018-06-10T21:55:29.772Z,17.37
2018-06-10T21:57:59.022Z,17.07
2018-06-10T22:00:27.959Z,17.35
2018-06-10T22:02:56.301Z,17.80
2018-06-10T22:05:24.552Z,16.97
2018-06-10T22:07:52.930Z,16.70
2018-06-10T22:10:21.241Z,16.17
2018-06-10T22:12:49.530Z,17.60
2018-06-10T22:15:17.802Z,17.50
2018-06-10T22:17:46.125Z,16.82
2018-06-10T22:20:14.411Z,15.95
2018-06-10T22:22:42.679Z,16.57
2018-06-10T22:25:10.956Z,17.37
2018-06-10T22:27:39.333Z,16.52
2018-06-10T22:30:07.614Z,15.30
2018-06-10T22:32:35.865Z,16.23
2018-06-10T22:35:04.119Z,15.80
2018-06-10T22:37:32.394Z,16.23
2018-06-10T22:40:00.655Z,15.53
2018-06-10T22:42:28.929Z,15.28
2018-06-10T22:44:57.240Z,16.23
2018-06-10T22:47:25.492Z,15.38
2018-06-10T22:49:53.741Z,15.03
2018-06-10T22:52:22.027Z,16.20
2018-06-10T22:54:50.287Z,16.73
2018-06-10T22:57:18.578Z,15.68
2018-06-10T22:59:46.870Z,16.17
2018-06-10T23:02:15.155Z,16.07
2018-06-10T23:04:43.340Z,15.95
2018-06-10T23:07:11.624Z,15.57
2018-06-10T23:09:39.714Z,15.30
2018-06-10T23:12:07.980Z,14.93
2018-06-10T23:14:36.223Z,16.95
2018-06-10T23:17:04.500Z,15.08
2018-06-10T23:19:32.738Z,16.67
2018-06-10T23:22:00.999Z,14.80
2018-06-10T23:24:29.287Z,15.58
2018-06-10T23:26:57.573Z,14.83
2018-06-10T23:29:26.476Z,14.93
2018-06-10T23:31:54.761Z,15.00
2018-06-10T23:34:23.037Z,18.48
2018-06-10T23:36:51.334Z,16.50
2018-06-10T23:39:19.339Z,18.27
2018-06-10T23:41:47.615Z,17.37
2018-06-10T23:44:15.851Z,18.07
2018-06-10T23:46:44.137Z,17.50
2018-06-10T23:49:14.504Z,17.50
2018-06-10T23:51:43.875Z,18.63
2018-06-10T23:54:12.547Z,18.57
2018-06-10T23:56:40.539Z,17.87
2018-06-10T23:59:08.782Z,18.07
